Accueil
METAR-TAF:

METAR-TAF

Aéroports :

Aérodrome de Wallis-Hihifo

Wallis, France

latitude: 13-14S, longitude: 176-10W, altitude: 23 m

METAR: absent

Heure: 04:06 (16:06 UTC)

Prévision

Le bulletin a été fait il y a 5 heures et 6 minutes, à 11:00 UTC
Prévision valable du 13 à 12 UTC au 14 à 12 UTC
Vent 6 kt de est
Visibilité 10 km ou plus
Nuages épars à une hauteur de 1500 ft
Nuages fragmentés à une hauteur de 3500 ft
Temporairement
du 13 à 12 UTC au 13 à 23 UTC
averses de pluie
Temporairement
du 13 à 12 UTC au 13 à 18 UTC
Visibilité: 3500 m
Nuages fragmentés à une hauteur de 1400 ft
Nuages épars à une hauteur de 2000 ft, Cumulus congestus.
averses de pluie

TAF: NLWW 131100Z 1312/1412 09006KT 9999 SCT015 BKN035 TEMPO 1312/1323 SHRA TEMPO 1312/1318 3500 SHRA BKN014 SCT020TCU

Observations et prévisions météorologiques de plus de 4000 aéroports (messages METAR et TAF).

Les stations disponibles sont représentées par des disques jaunes et rouges sur la carte.

Passer la souris dessus pour voir le nom de la station.

Cliquer dessus pour voir les observations et prévisions météorologiques.

Pour changer de carte: cliquez sur les boutons verts avec une croix noire pour zoomer, sur le bouton vert avec un tiret pour effectuer un zoom arrière, ou sur les flèches vertes pour les cartes adjacentes.


METAR-TAF: